Time;durP1;ratioP1;P1;durP2;ratioP2;P2;SDS_P1;SDS_P2;PMS_P1;PMS_P2;Temp;Humidity;BMP_temperature;BMP_pressure;BME280_temperature;BME280_humidity;BME280_pressure;Samples;Min_cycle;Max_cycle;Signal;HPM_P1;HPM_P2
2022/11/14 00:01:13;;;;;;;8.02;5.30;;;8.00;99.90;;;;;;4944120;28;20067;-66
2022/11/14 00:03:58;;;;;;;6.63;5.80;;;8.00;99.90;;;;;;4944968;28;20237;-70
2022/11/14 00:06:44;;;;;;;6.82;5.63;;;8.00;99.90;;;;;;4937476;28;20050;-67
2022/11/14 00:09:29;;;;;;;7.35;4.60;;;7.90;99.90;;;;;;4938256;28;20046;-70
2022/11/14 00:12:15;;;;;;;8.85;4.97;;;7.90;99.90;;;;;;4941156;28;20165;-67
2022/11/14 00:15:00;;;;;;;7.68;5.35;;;7.90;99.90;;;;;;4937293;28;20045;-66
2022/11/14 00:17:46;;;;;;;8.70;5.20;;;7.90;99.90;;;;;;4940315;28;20054;-67
2022/11/14 00:20:32;;;;;;;6.28;4.47;;;7.90;99.90;;;;;;4941582;28;20066;-69
2022/11/14 00:23:19;;;;;;;10.75;5.10;;;7.80;99.90;;;;;;4937626;28;20054;-69
2022/11/14 00:26:04;;;;;;;8.55;4.72;;;7.90;99.90;;;;;;4946488;28;20054;-69
2022/11/14 00:28:49;;;;;;;6.90;4.55;;;7.90;99.90;;;;;;4943956;28;20058;-68
2022/11/14 00:31:35;;;;;;;8.25;4.80;;;7.80;99.90;;;;;;4945408;28;20050;-68
2022/11/14 00:34:20;;;;;;;8.23;5.20;;;7.80;99.90;;;;;;4943353;28;20054;-67
2022/11/14 00:37:06;;;;;;;7.70;4.53;;;7.80;99.90;;;;;;4940646;28;20050;-68
2022/11/14 00:39:51;;;;;;;8.68;4.05;;;7.80;99.90;;;;;;4941240;28;20050;-68
2022/11/14 00:42:37;;;;;;;7.30;4.32;;;7.80;99.90;;;;;;4944857;28;20721;-68
2022/11/14 00:45:23;;;;;;;6.68;4.20;;;7.80;99.90;;;;;;4940697;28;20058;-68
2022/11/14 00:48:08;;;;;;;12.07;4.70;;;7.80;99.90;;;;;;4941463;28;20050;-68
2022/11/14 00:50:54;;;;;;;5.18;4.03;;;7.80;99.90;;;;;;4942364;28;20070;-68
2022/11/14 00:53:39;;;;;;;8.57;4.60;;;7.80;99.90;;;;;;4946211;28;20053;-69
2022/11/14 00:56:25;;;;;;;5.72;3.65;;;7.80;99.90;;;;;;4944414;28;20436;-67
2022/11/14 00:59:10;;;;;;;6.88;5.13;;;7.70;99.90;;;;;;4941150;28;20202;-68
2022/11/14 01:01:56;;;;;;;7.70;4.95;;;7.70;99.90;;;;;;4946088;28;20170;-68
2022/11/14 01:04:42;;;;;;;10.77;5.05;;;7.70;99.90;;;;;;4943097;28;20594;-67
2022/11/14 01:07:28;;;;;;;7.90;4.50;;;7.70;99.90;;;;;;4942253;28;20338;-67
2022/11/14 01:10:13;;;;;;;9.43;5.32;;;7.70;99.90;;;;;;4940857;28;20058;-68
2022/11/14 01:12:59;;;;;;;6.80;5.47;;;7.70;99.90;;;;;;4940880;28;20058;-66
2022/11/14 01:15:46;;;;;;;10.45;4.90;;;7.70;99.90;;;;;;4939730;28;20046;-67
2022/11/14 01:18:32;;;;;;;8.30;5.18;;;7.70;99.90;;;;;;4940106;28;20574;-67
2022/11/14 01:21:17;;;;;;;7.43;5.28;;;7.70;99.90;;;;;;4942761;28;20211;-67
2022/11/14 01:24:03;;;;;;;8.80;6.65;;;7.70;99.90;;;;;;4943780;28;20053;-68
2022/11/14 01:26:48;;;;;;;6.75;4.80;;;7.70;99.90;;;;;;4939071;28;20122;-67
2022/11/14 01:29:34;;;;;;;8.25;5.35;;;7.70;99.90;;;;;;4941107;28;20062;-67
2022/11/14 01:32:19;;;;;;;8.43;6.07;;;7.70;99.90;;;;;;4939169;28;20121;-66
2022/11/14 01:35:05;;;;;;;5.32;4.50;;;7.70;99.90;;;;;;4942194;28;20054;-67
2022/11/14 01:37:50;;;;;;;6.97;4.75;;;7.70;99.90;;;;;;4942495;28;20046;-69
2022/11/14 01:40:41;;;;;;;8.15;5.65;;;7.70;99.90;;;;;;4942786;28;20457;-68
2022/11/14 01:43:28;;;;;;;8.43;6.40;;;7.70;99.90;;;;;;4944330;28;20187;-67
2022/11/14 01:46:29;;;;;;;8.98;4.65;;;7.70;99.90;;;;;;4940561;28;20046;-69
2022/11/14 01:49:22;;;;;;;8.20;4.53;;;7.70;99.90;;;;;;4943953;28;20043;-70
2022/11/14 01:52:24;;;;;;;6.43;4.85;;;7.70;99.90;;;;;;4945993;28;20058;-67
2022/11/14 01:55:10;;;;;;;6.40;4.55;;;7.70;99.90;;;;;;4964960;28;20065;-67
2022/11/14 01:57:56;;;;;;;5.40;3.80;;;7.70;99.90;;;;;;4961305;28;20105;-67
2022/11/14 02:00:43;;;;;;;7.78;5.03;;;7.70;99.90;;;;;;4960943;28;20057;-67
2022/11/14 02:03:28;;;;;;;7.72;4.68;;;7.70;99.90;;;;;;4966066;28;20573;-67
2022/11/14 02:06:18;;;;;;;6.28;3.83;;;7.70;99.90;;;;;;4962760;28;20209;-69
2022/11/14 02:09:05;;;;;;;5.18;3.78;;;7.80;99.90;;;;;;4964864;28;20197;-66
2022/11/14 02:11:53;;;;;;;3.42;2.83;;;7.80;99.90;;;;;;4965266;28;20054;-67
2022/11/14 02:14:41;;;;;;;7.90;3.72;;;7.80;99.90;;;;;;4962218;28;20445;-67
2022/11/14 02:17:26;;;;;;;7.55;3.60;;;7.80;99.90;;;;;;4965199;28;20058;-67
2022/11/14 02:20:22;;;;;;;7.88;3.97;;;7.80;99.90;;;;;;4965385;28;20062;-66
2022/11/14 02:23:10;;;;;;;6.78;3.55;;;7.80;99.90;;;;;;4956210;28;20117;-67
2022/11/14 02:25:55;;;;;;;7.43;4.22;;;7.80;99.90;;;;;;4965836;28;20563;-67
2022/11/14 02:28:40;;;;;;;5.57;3.50;;;7.80;99.90;;;;;;4964138;28;20500;-67
2022/11/14 02:31:26;;;;;;;5.25;3.22;;;7.80;99.90;;;;;;4960834;28;20500;-69
2022/11/14 02:34:11;;;;;;;5.47;4.00;;;7.80;99.90;;;;;;4962284;28;20057;-69
2022/11/14 02:36:57;;;;;;;5.70;3.67;;;7.80;99.90;;;;;;4967177;28;20764;-67
2022/11/14 02:39:42;;;;;;;4.78;3.17;;;7.80;99.90;;;;;;4969191;28;20050;-74
2022/11/14 02:42:28;;;;;;;5.95;3.63;;;7.90;99.90;;;;;;4962120;28;20049;-68
2022/11/14 02:45:14;;;;;;;7.60;3.83;;;7.80;99.90;;;;;;4962825;28;20066;-67
2022/11/14 02:47:59;;;;;;;4.80;2.67;;;7.90;99.90;;;;;;4963183;28;20061;-69
2022/11/14 02:50:48;;;;;;;3.50;2.30;;;7.90;99.90;;;;;;4961535;28;20057;-69
2022/11/14 02:53:33;;;;;;;3.58;2.58;;;7.90;99.90;;;;;;4964499;28;20206;-67
2022/11/14 02:56:18;;;;;;;3.88;3.00;;;7.90;99.90;;;;;;4963501;28;20050;-68
2022/11/14 02:59:04;;;;;;;4.75;1.83;;;7.90;99.90;;;;;;4959017;28;20451;-68
2022/11/14 03:01:49;;;;;;;3.63;2.42;;;7.90;99.90;;;;;;4963758;28;20072;-70
2022/11/14 03:04:35;;;;;;;2.53;2.10;;;7.90;99.90;;;;;;4965322;28;20061;-67
2022/11/14 03:07:20;;;;;;;2.60;2.03;;;7.90;99.90;;;;;;4961584;28;20138;-68
2022/11/14 03:10:06;;;;;;;2.40;1.95;;;7.90;99.90;;;;;;4962448;28;20058;-67
2022/11/14 03:12:56;;;;;;;2.97;2.28;;;8.00;99.90;;;;;;4967317;28;20062;-67
2022/11/14 03:15:41;;;;;;;2.63;2.00;;;8.00;99.90;;;;;;4966351;28;20050;-67
2022/11/14 03:18:27;;;;;;;3.50;2.42;;;8.00;99.90;;;;;;4965851;28;20520;-67
2022/11/14 03:21:16;;;;;;;3.03;2.50;;;8.00;99.90;;;;;;4964144;28;20049;-66
2022/11/14 03:24:02;;;;;;;3.13;1.92;;;8.00;99.90;;;;;;4964694;28;20133;-70
2022/11/14 03:26:48;;;;;;;2.53;2.08;;;8.00;99.90;;;;;;4962665;28;20121;-70
2022/11/14 03:29:33;;;;;;;2.60;2.40;;;8.00;99.90;;;;;;4962588;28;20053;-66
2022/11/14 03:32:18;;;;;;;2.50;2.05;;;8.00;99.90;;;;;;4963104;28;20109;-70
2022/11/14 03:35:04;;;;;;;5.25;2.35;;;8.00;99.90;;;;;;4959594;28;20053;-66
2022/11/14 03:37:50;;;;;;;3.60;2.22;;;8.00;99.90;;;;;;4961353;28;20456;-70
2022/11/14 03:40:41;;;;;;;4.43;2.38;;;8.00;99.90;;;;;;4959658;28;20177;-67
2022/11/14 03:43:30;;;;;;;4.97;2.70;;;8.00;99.90;;;;;;4966334;28;20054;-67
2022/11/14 03:46:15;;;;;;;3.90;3.25;;;8.00;99.90;;;;;;4960170;28;20049;-67
2022/11/14 03:49:01;;;;;;;4.28;2.53;;;8.00;99.90;;;;;;4962327;28;20053;-69
2022/11/14 03:51:47;;;;;;;4.75;3.55;;;8.00;99.90;;;;;;4962478;28;20137;-69
2022/11/14 03:54:32;;;;;;;7.50;4.30;;;8.00;99.90;;;;;;4966117;28;20112;-66
2022/11/14 03:57:17;;;;;;;4.65;3.10;;;8.00;99.90;;;;;;4966598;28;20058;-68
2022/11/14 04:00:03;;;;;;;4.97;3.50;;;8.00;99.90;;;;;;4963783;28;20062;-66
2022/11/14 04:02:49;;;;;;;5.68;3.63;;;8.10;99.90;;;;;;4961467;28;20046;-69
2022/11/14 04:05:35;;;;;;;6.20;3.20;;;8.10;99.90;;;;;;4961096;28;20061;-67
2022/11/14 04:08:20;;;;;;;7.07;4.43;;;8.10;99.90;;;;;;4961033;28;20081;-68
2022/11/14 04:11:06;;;;;;;6.45;4.25;;;8.10;99.90;;;;;;4962537;28;20134;-66
2022/11/14 04:13:51;;;;;;;7.03;4.38;;;8.10;99.90;;;;;;4960732;28;20054;-68
2022/11/14 04:16:36;;;;;;;8.57;4.28;;;8.10;99.90;;;;;;4961463;28;20138;-66
2022/11/14 04:19:22;;;;;;;8.70;4.95;;;8.10;99.90;;;;;;4959522;28;20085;-67
2022/11/14 04:22:07;;;;;;;11.93;4.60;;;8.20;99.90;;;;;;4956334;28;20062;-73
2022/11/14 04:24:53;;;;;;;7.20;5.13;;;8.20;99.90;;;;;;4962596;28;20558;-68
2022/11/14 04:27:38;;;;;;;5.72;3.92;;;8.20;99.90;;;;;;4965859;28;20440;-67
2022/11/14 04:30:24;;;;;;;5.63;3.60;;;8.20;99.90;;;;;;4961446;28;20201;-68
2022/11/14 04:33:10;;;;;;;7.63;4.75;;;8.20;99.90;;;;;;4964602;28;20578;-67
2022/11/14 04:35:55;;;;;;;8.98;5.18;;;8.20;99.90;;;;;;4960526;28;20091;-69
2022/11/14 04:38:41;;;;;;;6.80;4.13;;;8.20;99.90;;;;;;4962804;28;20185;-66
2022/11/14 04:41:26;;;;;;;9.18;4.50;;;8.20;99.90;;;;;;4959614;28;20058;-68
2022/11/14 04:44:11;;;;;;;6.45;4.50;;;8.20;99.90;;;;;;4960447;28;20199;-66
2022/11/14 04:46:57;;;;;;;8.52;5.07;;;8.20;99.90;;;;;;4959591;28;20388;-68
2022/11/14 04:49:42;;;;;;;8.57;4.65;;;8.20;99.90;;;;;;4964979;28;20058;-66
2022/11/14 04:52:28;;;;;;;12.60;4.97;;;8.20;99.90;;;;;;4960731;28;20069;-67
2022/11/14 04:55:13;;;;;;;10.40;5.50;;;8.20;99.90;;;;;;4964741;28;20054;-68
2022/11/14 04:57:59;;;;;;;12.23;5.78;;;8.20;99.90;;;;;;4963880;28;20057;-70
2022/11/14 05:00:44;;;;;;;9.25;5.55;;;8.20;99.90;;;;;;4956531;28;20069;-70
2022/11/14 05:03:30;;;;;;;10.77;6.03;;;8.20;99.90;;;;;;4960241;28;20896;-69
2022/11/14 05:06:15;;;;;;;10.75;5.93;;;8.20;99.90;;;;;;4954914;28;20214;-67
2022/11/14 05:09:01;;;;;;;8.82;6.10;;;8.20;99.90;;;;;;4959025;28;20062;-67
2022/11/14 05:11:46;;;;;;;17.23;7.25;;;8.30;99.90;;;;;;4960890;28;20491;-68
2022/11/14 05:14:32;;;;;;;12.13;6.20;;;8.30;99.90;;;;;;4956769;28;20772;-67
2022/11/14 05:17:18;;;;;;;11.70;6.05;;;8.30;99.90;;;;;;4960351;28;20188;-67
2022/11/14 05:20:04;;;;;;;12.45;7.97;;;8.30;99.90;;;;;;4959160;28;20507;-68
2022/11/14 05:22:55;;;;;;;11.32;6.30;;;8.30;99.90;;;;;;4962489;28;20130;-70
2022/11/14 05:25:40;;;;;;;9.98;6.10;;;8.30;99.90;;;;;;4967785;28;20690;-66
2022/11/14 05:28:26;;;;;;;12.82;7.72;;;8.30;99.90;;;;;;4967485;28;20062;-67
2022/11/14 05:31:16;;;;;;;13.55;6.68;;;8.30;99.90;;;;;;4966924;28;20062;-69
2022/11/14 05:34:02;;;;;;;11.95;5.88;;;8.30;99.90;;;;;;4968998;28;20054;-67
2022/11/14 05:36:47;;;;;;;9.93;6.63;;;8.30;99.90;;;;;;4968133;28;20054;-67
2022/11/14 05:39:33;;;;;;;12.40;6.07;;;8.30;99.90;;;;;;4965033;28;20105;-69
2022/11/14 05:42:19;;;;;;;12.52;6.45;;;8.30;99.90;;;;;;4966032;28;20069;-67
2022/11/14 05:45:05;;;;;;;14.88;6.70;;;8.40;99.90;;;;;;4964532;28;20042;-69
2022/11/14 05:47:53;;;;;;;14.73;7.47;;;8.30;99.90;;;;;;4966509;28;20065;-67
2022/11/14 05:50:38;;;;;;;13.60;7.50;;;8.40;99.90;;;;;;4966732;28;20210;-67
2022/11/14 05:53:25;;;;;;;21.83;8.07;;;8.40;99.90;;;;;;4966260;28;20054;-67
2022/11/14 05:56:11;;;;;;;12.68;7.43;;;8.40;99.90;;;;;;4964894;28;20121;-68
2022/11/14 05:58:57;;;;;;;17.92;7.70;;;8.40;99.90;;;;;;4963954;28;20150;-68
2022/11/14 06:01:42;;;;;;;18.63;8.45;;;8.40;99.90;;;;;;4966039;28;20159;-68
2022/11/14 06:04:28;;;;;;;21.10;8.48;;;8.40;99.90;;;;;;4961302;28;20624;-68
2022/11/14 06:07:13;;;;;;;18.58;9.15;;;8.50;99.90;;;;;;4964660;28;20049;-67
2022/11/14 06:10:05;;;;;;;17.23;8.85;;;8.50;99.90;;;;;;4967355;28;20152;-70
2022/11/14 06:12:50;;;;;;;16.80;8.65;;;8.50;99.90;;;;;;4966589;28;20377;-66
2022/11/14 06:15:36;;;;;;;18.13;8.68;;;8.50;99.90;;;;;;4967136;28;20050;-66
2022/11/14 06:18:21;;;;;;;13.95;8.73;;;8.50;99.90;;;;;;4965931;28;20177;-67
2022/11/14 06:21:14;;;;;;;18.95;11.25;;;8.50;99.90;;;;;;4966215;28;20070;-66
2022/11/14 06:24:00;;;;;;;19.42;9.38;;;8.60;99.90;;;;;;4965685;28;20065;-67
2022/11/14 06:26:45;;;;;;;20.38;9.93;;;8.60;99.90;;;;;;4963214;28;20061;-66
2022/11/14 06:29:31;;;;;;;21.85;9.10;;;8.60;99.90;;;;;;4963376;28;20050;-66
2022/11/14 06:32:20;;;;;;;22.60;9.98;;;8.60;99.90;;;;;;4962401;28;20249;-70
2022/11/14 06:35:07;;;;;;;20.95;9.82;;;8.60;99.90;;;;;;4966197;28;20049;-67
2022/11/14 06:37:53;;;;;;;16.75;9.70;;;8.60;99.90;;;;;;4965067;28;20140;-71
2022/11/14 06:40:38;;;;;;;21.15;11.60;;;8.60;99.90;;;;;;4963506;28;20102;-66
2022/11/14 06:43:23;;;;;;;20.95;9.52;;;8.60;99.90;;;;;;4965349;28;20058;-66
2022/11/14 06:46:11;;;;;;;20.85;11.57;;;8.60;99.90;;;;;;4964799;28;20058;-66
2022/11/14 06:48:57;;;;;;;18.35;10.85;;;8.60;99.90;;;;;;4965379;28;20070;-69
2022/11/14 06:51:42;;;;;;;19.88;12.02;;;8.70;99.90;;;;;;4963532;28;20101;-68
2022/11/14 06:54:28;;;;;;;20.33;10.93;;;8.70;99.90;;;;;;4960831;28;20058;-67
2022/11/14 06:57:13;;;;;;;21.70;10.25;;;8.70;99.90;;;;;;4964197;28;20134;-67
2022/11/14 06:59:59;;;;;;;18.25;11.45;;;8.70;99.90;;;;;;4964609;28;20515;-66
2022/11/14 07:02:45;;;;;;;16.80;10.60;;;8.70;99.90;;;;;;4963971;28;20058;-66
2022/11/14 07:05:31;;;;;;;30.85;13.05;;;8.70;99.90;;;;;;4964871;28;20050;-66
2022/11/14 07:08:16;;;;;;;25.98;11.25;;;8.80;99.90;;;;;;4962801;28;20182;-66
2022/11/14 07:11:22;;;;;;;16.15;10.48;;;8.80;99.90;;;;;;4961960;28;20046;-67
2022/11/14 07:14:08;;;;;;;21.48;9.98;;;8.80;99.90;;;;;;4963259;28;20058;-70
2022/11/14 07:16:53;;;;;;;21.77;12.25;;;8.80;99.90;;;;;;4965792;28;20365;-66
2022/11/14 07:19:39;;;;;;;20.58;12.10;;;8.80;99.90;;;;;;4960896;28;20058;-66
2022/11/14 07:22:24;;;;;;;19.33;12.68;;;8.80;99.90;;;;;;4960911;28;20058;-66
2022/11/14 07:25:10;;;;;;;23.33;11.27;;;8.90;99.90;;;;;;4966283;28;20162;-67
2022/11/14 07:27:56;;;;;;;19.17;10.63;;;8.90;99.90;;;;;;4964071;28;20058;-68
2022/11/14 07:30:42;;;;;;;23.55;14.00;;;8.90;99.90;;;;;;4965313;28;20058;-66
2022/11/14 07:33:28;;;;;;;18.02;10.27;;;8.90;99.90;;;;;;4965456;28;20240;-68
2022/11/14 07:36:15;;;;;;;22.70;13.25;;;9.00;99.90;;;;;;4963222;28;20101;-70
2022/11/14 07:39:00;;;;;;;21.52;11.73;;;9.00;99.90;;;;;;4964610;28;20429;-65
2022/11/14 07:41:46;;;;;;;20.48;11.77;;;9.00;99.90;;;;;;4961020;28;20050;-65
2022/11/14 07:44:31;;;;;;;30.30;14.05;;;9.00;99.90;;;;;;4964628;28;20543;-65
2022/11/14 07:47:17;;;;;;;25.05;13.48;;;9.10;99.90;;;;;;4963503;28;20135;-66
2022/11/14 07:50:03;;;;;;;22.30;12.98;;;9.10;99.90;;;;;;4964170;28;20388;-68
2022/11/14 07:52:52;;;;;;;21.02;11.63;;;9.10;99.90;;;;;;4961571;28;20065;-68
2022/11/14 07:55:38;;;;;;;20.60;13.38;;;9.20;99.90;;;;;;4963212;28;20418;-67
2022/11/14 07:58:24;;;;;;;25.40;11.35;;;9.20;99.90;;;;;;4959625;28;20062;-71
2022/11/14 08:01:11;;;;;;;24.92;11.95;;;9.20;99.90;;;;;;4961251;28;20057;-67
2022/11/14 08:03:56;;;;;;;20.90;11.63;;;9.20;99.90;;;;;;4965679;28;20050;-66
2022/11/14 08:06:42;;;;;;;21.77;11.95;;;9.30;99.90;;;;;;4960823;28;20050;-66
2022/11/14 08:09:28;;;;;;;19.90;11.63;;;9.30;99.90;;;;;;4964903;28;20145;-68
2022/11/14 08:12:13;;;;;;;19.08;12.15;;;9.40;99.90;;;;;;4960711;28;20190;-66
2022/11/14 08:14:59;;;;;;;25.00;13.80;;;9.40;99.90;;;;;;4960770;28;20181;-66
2022/11/14 08:17:44;;;;;;;19.77;10.90;;;9.40;99.90;;;;;;4962432;28;20046;-66
2022/11/14 08:20:29;;;;;;;23.58;12.23;;;9.50;99.90;;;;;;4957499;28;20396;-66
2022/11/14 08:23:15;;;;;;;18.60;10.38;;;9.50;99.90;;;;;;4958359;28;20050;-69
2022/11/14 08:26:01;;;;;;;16.02;9.70;;;9.60;99.90;;;;;;4964441;28;20796;-65
2022/11/14 08:28:46;;;;;;;15.77;8.55;;;9.60;99.90;;;;;;4959064;28;20113;-66
2022/11/14 08:31:32;;;;;;;18.02;10.07;;;9.60;99.90;;;;;;4960823;28;20073;-68
2022/11/14 08:34:17;;;;;;;21.25;9.82;;;9.60;99.90;;;;;;4959466;28;20750;-69
2022/11/14 08:37:03;;;;;;;22.65;11.60;;;9.70;99.90;;;;;;4957395;28;20058;-68
2022/11/14 08:39:48;;;;;;;16.15;10.52;;;9.70;99.90;;;;;;4958746;28;20121;-66
2022/11/14 08:42:34;;;;;;;14.02;9.32;;;9.60;99.90;;;;;;4956566;28;20065;-67
2022/11/14 08:45:19;;;;;;;17.00;8.85;;;9.70;99.90;;;;;;4959481;28;20050;-69
2022/11/14 08:48:05;;;;;;;16.08;9.65;;;9.70;99.90;;;;;;4961022;28;20105;-67
2022/11/14 08:50:51;;;;;;;18.45;9.07;;;9.70;99.90;;;;;;4940141;28;20106;-68
2022/11/14 08:53:36;;;;;;;13.90;7.97;;;9.70;99.90;;;;;;4940482;28;20054;-67
2022/11/14 08:56:22;;;;;;;16.67;9.82;;;9.70;99.90;;;;;;4940673;28;20366;-67
2022/11/14 08:59:07;;;;;;;16.85;9.98;;;9.70;99.90;;;;;;4940003;28;20545;-66
2022/11/14 09:01:52;;;;;;;13.98;9.32;;;9.70;99.90;;;;;;4942445;28;20054;-67
2022/11/14 09:04:38;;;;;;;14.35;9.20;;;9.80;99.90;;;;;;4946872;28;20058;-69
2022/11/14 09:07:23;;;;;;;15.65;9.32;;;9.80;99.90;;;;;;4965948;28;20066;-66
2022/11/14 09:10:09;;;;;;;17.38;8.98;;;9.80;99.90;;;;;;4967420;28;20069;-67
2022/11/14 09:12:55;;;;;;;15.77;8.20;;;9.80;99.90;;;;;;4964586;28;20227;-66
2022/11/14 09:15:42;;;;;;;17.73;10.73;;;9.80;99.90;;;;;;4967462;28;20054;-66
2022/11/14 09:18:28;;;;;;;17.05;8.77;;;9.80;99.90;;;;;;4968369;28;20045;-66
2022/11/14 09:21:14;;;;;;;19.73;10.48;;;9.80;99.90;;;;;;4965240;28;20230;-66
2022/11/14 09:24:00;;;;;;;16.02;8.25;;;9.80;99.90;;;;;;4968862;28;20241;-67
2022/11/14 09:26:48;;;;;;;19.95;9.45;;;9.80;99.90;;;;;;4964255;28;20054;-66
2022/11/14 09:29:41;;;;;;;11.40;8.60;;;9.80;99.90;;;;;;4961191;28;20194;-66
2022/11/14 09:32:26;;;;;;;20.13;8.77;;;9.80;99.90;;;;;;4966577;28;20512;-66
2022/11/14 09:35:12;;;;;;;15.02;9.18;;;9.80;99.90;;;;;;4965929;28;20045;-66
2022/11/14 09:38:10;;;;;;;20.30;9.15;;;9.80;99.90;;;;;;4963074;28;20184;-66
2022/11/14 09:41:08;;;;;;;18.02;9.32;;;9.80;99.90;;;;;;4963326;28;20054;-66
2022/11/14 09:44:19;;;;;;;21.33;10.00;;;9.90;99.90;;;;;;4968659;28;20385;-67
2022/11/14 09:47:17;;;;;;;20.13;9.30;;;9.90;99.90;;;;;;4962281;28;20075;-66
2022/11/14 09:50:27;;;;;;;11.77;9.10;;;9.90;99.90;;;;;;4968222;28;20054;-65
2022/11/14 09:53:30;;;;;;;16.83;7.80;;;10.00;99.90;;;;;;4964278;28;20050;-66
2022/11/14 09:56:23;;;;;;;18.58;7.50;;;10.00;99.90;;;;;;4962668;28;20062;-70
2022/11/14 09:59:11;;;;;;;14.90;9.27;;;10.10;99.90;;;;;;4965763;28;20123;-65
2022/11/14 10:02:49;;;;;;;18.73;7.18;;;10.10;99.90;;;;;;4964327;28;20615;-65
2022/11/14 10:05:46;;;;;;;17.75;7.55;;;10.10;99.90;;;;;;4951252;28;20049;-67
2022/11/14 10:08:38;;;;;;;13.05;7.95;;;10.20;99.90;;;;;;4963145;28;20494;-66
2022/11/14 10:11:49;;;;;;;19.08;8.48;;;10.10;99.90;;;;;;4963465;28;20081;-67
2022/11/14 10:14:34;;;;;;;16.90;7.22;;;10.20;99.90;;;;;;4952198;28;20442;-65
2022/11/14 10:17:25;;;;;;;12.98;6.72;;;10.20;99.90;;;;;;4966584;28;20053;-68
2022/11/14 10:20:31;;;;;;;12.13;6.10;;;10.20;99.90;;;;;;4965822;28;20054;-66
2022/11/14 10:23:31;;;;;;;12.80;7.07;;;10.20;99.90;;;;;;4960949;28;20365;-67
2022/11/14 10:26:30;;;;;;;17.50;7.88;;;10.20;99.90;;;;;;4963443;28;20050;-68
2022/11/14 10:29:37;;;;;;;30.45;8.88;;;10.20;99.90;;;;;;4965343;28;20101;-67
2022/11/14 10:32:51;;;;;;;20.00;7.18;;;10.20;99.90;;;;;;4963990;28;20109;-68
2022/11/14 10:35:39;;;;;;;12.30;5.80;;;10.20;99.90;;;;;;4965180;28;20097;-68
2022/11/14 10:38:33;;;;;;;13.18;6.88;;;10.20;99.90;;;;;;4960189;28;20531;-66
2022/11/14 10:41:19;;;;;;;14.15;6.30;;;10.30;99.90;;;;;;4966007;28;20046;-71
2022/11/14 10:44:56;;;;;;;13.93;6.43;;;10.30;99.90;;;;;;4965663;28;20058;-66
2022/11/14 10:47:48;;;;;;;13.48;6.70;;;10.30;99.90;;;;;;4965296;28;20161;-67
2022/11/14 10:50:52;;;;;;;13.05;6.85;;;10.30;99.90;;;;;;4960226;28;20066;-71
2022/11/14 10:53:57;;;;;;;10.10;4.53;;;10.30;99.90;;;;;;4963719;28;20050;-67
2022/11/14 10:56:52;;;;;;;11.30;5.72;;;10.30;99.90;;;;;;4962020;28;20057;-66
2022/11/14 10:59:37;;;;;;;9.45;5.15;;;10.30;99.90;;;;;;4963443;28;20057;-66
2022/11/14 11:02:23;;;;;;;12.25;4.55;;;10.30;99.90;;;;;;4958087;28;20065;-67
2022/11/14 11:05:15;;;;;;;14.05;4.63;;;10.30;99.90;;;;;;4956882;28;20054;-66
2022/11/14 11:11:31;;;;;;;9.40;5.38;;;10.40;99.90;;;;;;4953296;28;20055;-66
2022/11/14 11:14:18;;;;;;;13.18;5.78;;;10.40;99.90;;;;;;4935677;28;20138;-68
2022/11/14 11:17:07;;;;;;;11.20;5.53;;;10.40;99.90;;;;;;4943198;28;20201;-70
2022/11/14 11:19:53;;;;;;;10.50;4.90;;;10.40;99.90;;;;;;4942926;28;20556;-71
2022/11/14 11:22:38;;;;;;;12.65;5.13;;;10.40;99.90;;;;;;4940865;28;20076;-67
2022/11/14 11:25:27;;;;;;;7.97;4.80;;;10.40;99.90;;;;;;4946839;28;20082;-67
2022/11/14 11:28:18;;;;;;;11.07;5.72;;;10.40;99.90;;;;;;4940839;28;20544;-67
2022/11/14 11:31:06;;;;;;;10.43;4.88;;;10.40;99.90;;;;;;4943898;28;20058;-69
2022/11/14 11:33:52;;;;;;;10.00;5.88;;;10.40;99.90;;;;;;4947464;28;20054;-67
2022/11/14 11:36:48;;;;;;;11.07;5.38;;;10.40;99.90;;;;;;4941266;28;20054;-66
2022/11/14 11:39:40;;;;;;;9.90;5.60;;;10.30;99.90;;;;;;4945209;28;20058;-67
2022/11/14 11:42:32;;;;;;;12.23;6.40;;;10.30;99.90;;;;;;4945549;28;20049;-70
2022/11/14 11:45:38;;;;;;;14.02;5.82;;;10.30;99.90;;;;;;4939945;28;20051;-67
2022/11/14 11:48:37;;;;;;;11.55;5.22;;;10.40;99.90;;;;;;4944433;28;20129;-67
2022/11/14 11:51:25;;;;;;;6.32;4.78;;;10.30;99.90;;;;;;4942061;28;20122;-65
2022/11/14 11:54:21;;;;;;;9.27;5.05;;;10.40;99.90;;;;;;4941473;28;20046;-67
2022/11/14 11:57:13;;;;;;;13.43;5.63;;;10.40;99.90;;;;;;4940289;28;20053;-71
2022/11/14 12:00:20;;;;;;;11.93;5.15;;;10.40;99.90;;;;;;4938739;28;20050;-70
2022/11/14 12:03:12;;;;;;;12.18;5.95;;;10.40;99.90;;;;;;4944307;28;20062;-72
2022/11/14 12:06:28;;;;;;;10.40;4.97;;;10.40;99.90;;;;;;4940823;28;20090;-72
2022/11/14 12:09:19;;;;;;;11.00;6.30;;;10.30;99.90;;;;;;4935898;28;20054;-69
2022/11/14 12:12:22;;;;;;;12.88;5.47;;;10.40;99.90;;;;;;4942633;28;20058;-66
2022/11/14 12:15:11;;;;;;;7.25;5.07;;;10.30;99.90;;;;;;4958365;28;20133;-68
2022/11/14 12:18:14;;;;;;;10.65;4.78;;;10.30;99.90;;;;;;4962110;28;20066;-70
2022/11/14 12:21:02;;;;;;;11.15;5.35;;;10.30;99.90;;;;;;4963029;28;20061;-69
2022/11/14 12:24:18;;;;;;;10.63;4.47;;;10.30;99.90;;;;;;4960442;28;20124;-67
2022/11/14 12:27:35;;;;;;;11.55;4.80;;;10.40;99.90;;;;;;4963362;28;20062;-71
2022/11/14 12:30:23;;;;;;;8.30;5.45;;;10.40;99.90;;;;;;4960548;28;20041;-72
2022/11/14 12:33:25;;;;;;;15.07;5.65;;;10.30;99.90;;;;;;4965113;28;20546;-67
2022/11/14 12:36:12;;;;;;;11.80;5.60;;;10.30;99.90;;;;;;4963865;28;20045;-68
2022/11/14 12:38:58;;;;;;;9.57;4.57;;;10.30;99.90;;;;;;4962670;28;20054;-67
2022/11/14 12:41:44;;;;;;;16.00;6.00;;;10.30;99.90;;;;;;4960584;28;20053;-67
2022/11/14 12:44:31;;;;;;;10.68;5.18;;;10.30;99.90;;;;;;4960511;28;20045;-68
2022/11/14 12:47:22;;;;;;;11.50;5.55;;;10.30;99.90;;;;;;4962764;28;20061;-71
2022/11/14 12:50:30;;;;;;;9.43;4.47;;;10.30;99.90;;;;;;4961693;28;20097;-69
2022/11/14 12:53:36;;;;;;;8.35;5.43;;;10.30;99.90;;;;;;4958273;28;20050;-70
2022/11/14 12:56:31;;;;;;;9.10;4.35;;;10.40;99.90;;;;;;4972564;28;20041;-67
2022/11/14 12:59:32;;;;;;;14.00;5.40;;;10.30;99.90;;;;;;4961582;28;20069;-67
2022/11/14 13:03:06;;;;;;;10.80;5.85;;;10.30;99.90;;;;;;4960966;28;20177;-68
2022/11/14 13:06:15;;;;;;;7.47;4.78;;;10.30;99.90;;;;;;4955171;28;20050;-67
2022/11/14 13:09:13;;;;;;;10.50;5.03;;;10.30;99.90;;;;;;4962462;28;20080;-67
2022/11/14 13:22:10;;;;;;;10.35;5.50;;;10.20;99.90;;;;;;4946037;28;20182;-67
2022/11/14 13:24:59;;;;;;;10.23;5.53;;;10.20;99.90;;;;;;4943317;28;20070;-67
2022/11/14 13:27:44;;;;;;;9.30;4.95;;;10.20;99.90;;;;;;4943655;28;20055;-68
2022/11/14 13:31:15;;;;;;;8.02;4.65;;;10.20;99.90;;;;;;4943804;28;20043;-67
2022/11/14 13:34:28;;;;;;;9.02;4.82;;;10.20;99.90;;;;;;4939819;28;20054;-71
2022/11/14 13:37:25;;;;;;;8.88;5.03;;;10.10;99.90;;;;;;4942989;28;20046;-66
2022/11/14 13:40:18;;;;;;;8.20;4.65;;;10.10;99.90;;;;;;4943290;28;20488;-71
2022/11/14 13:43:11;;;;;;;9.25;4.97;;;10.10;99.90;;;;;;4939119;28;20134;-68
2022/11/14 13:46:23;;;;;;;6.78;4.70;;;10.10;99.90;;;;;;4944425;28;20070;-67
2022/11/14 13:49:47;;;;;;;6.22;4.60;;;10.10;99.90;;;;;;4943125;28;20622;-68
2022/11/14 13:52:38;;;;;;;7.88;4.93;;;10.10;99.90;;;;;;4944814;28;20058;-67
2022/11/14 13:55:48;;;;;;;9.30;5.88;;;10.10;99.90;;;;;;4947286;28;20062;-68
2022/11/14 13:59:00;;;;;;;8.32;5.93;;;10.00;99.90;;;;;;4943885;28;20106;-69
2022/11/14 14:02:01;;;;;;;9.85;5.25;;;10.00;99.90;;;;;;4945276;28;20197;-67
2022/11/14 14:05:13;;;;;;;9.38;5.82;;;10.00;99.90;;;;;;4940868;28;20500;-66
2022/11/14 14:08:09;;;;;;;11.75;5.90;;;10.00;99.90;;;;;;4940669;28;20053;-68
2022/11/14 14:11:22;;;;;;;10.43;5.13;;;10.00;99.90;;;;;;4966401;28;20062;-67
2022/11/14 14:14:35;;;;;;;10.45;6.22;;;10.00;99.90;;;;;;4963122;28;20085;-71
2022/11/14 14:17:42;;;;;;;7.88;5.18;;;10.00;99.90;;;;;;4940724;28;20054;-70
2022/11/14 14:20:38;;;;;;;10.95;5.75;;;9.90;99.90;;;;;;4939542;28;20054;-69
2022/11/14 14:23:47;;;;;;;10.23;5.32;;;9.90;99.90;;;;;;4953813;28;20125;-68
2022/11/14 14:26:54;;;;;;;12.25;7.75;;;9.90;99.90;;;;;;4959500;28;20070;-69
2022/11/14 14:30:04;;;;;;;7.70;5.00;;;9.80;99.90;;;;;;4959701;28;20194;-67
2022/11/14 14:33:14;;;;;;;11.25;5.90;;;9.80;99.90;;;;;;4959671;28;20493;-68
2022/11/14 14:35:59;;;;;;;9.73;4.60;;;9.80;99.90;;;;;;4961747;28;20081;-70
2022/11/14 14:38:46;;;;;;;7.75;5.88;;;9.80;99.90;;;;;;4962660;28;20409;-71
2022/11/14 14:41:31;;;;;;;7.80;5.85;;;9.80;99.90;;;;;;4962425;28;20097;-67
2022/11/14 14:44:17;;;;;;;13.30;6.15;;;9.70;99.90;;;;;;4959677;28;20050;-70
2022/11/14 14:47:40;;;;;;;7.63;4.50;;;9.70;99.90;;;;;;4958536;28;20096;-66
2022/11/14 14:50:38;;;;;;;9.20;5.18;;;9.70;99.90;;;;;;4956818;28;20173;-70
2022/11/14 14:53:35;;;;;;;6.10;4.28;;;9.70;99.90;;;;;;4963112;28;20217;-68
2022/11/14 14:56:23;;;;;;;5.72;4.93;;;9.70;99.90;;;;;;4961830;28;20393;-70
2022/11/14 14:59:17;;;;;;;6.03;3.88;;;9.70;99.90;;;;;;4961644;28;20041;-68
2022/11/14 15:02:02;;;;;;;9.80;5.85;;;9.70;99.90;;;;;;4961020;28;20054;-70